Houston, Illinois
Current Conditions -  °F | °C
As of 4:15 AM on Sunday 25 Jan 2015 (Local Time) from KSAR Reporting Station
Overcast Overcast  
Wind Chill: 42°   Ceiling: 8500
Heat Index: 45°   Visibility: 10mi
Dew Point: 34°   Wind: 5mph
Humidity: 65%   Direction: 200°SSW
Pressure: 29.66"   Gusts: NA
Location:  38.1133°N, 89.7153°W
Report Text: KSAR 251015Z AUTO 20004KT 10SM SCT075 BKN085 OVC100 07/01 A2966 RMK AO2 T00700009
Loading
Personal Weather Stations






























Interactive Weather Map New forecast layout! Learn more

10-Day Weather Forecast

Advertisements
Track Severe Weather on mobile